createdAt,value
2019-06-27T00:02:23.812Z,18.60
2019-06-27T00:04:52.109Z,18.40
2019-06-27T00:07:20.344Z,18.40
2019-06-27T00:09:48.605Z,18.30
2019-06-27T00:12:17.043Z,18.20
2019-06-27T00:14:48.092Z,18.10
2019-06-27T00:17:16.988Z,18.20
2019-06-27T00:19:45.720Z,18.00
2019-06-27T00:22:14.700Z,18.00
2019-06-27T00:24:48.267Z,18.00
2019-06-27T00:27:17.160Z,17.90
2019-06-27T00:29:44.642Z,17.90
2019-06-27T00:32:19.496Z,17.90
2019-06-27T00:34:47.739Z,17.90
2019-06-27T00:37:15.562Z,17.90
2019-06-27T00:39:43.674Z,17.80
2019-06-27T00:42:12.659Z,17.90
2019-06-27T00:44:40.059Z,17.70
2019-06-27T00:47:11.560Z,17.60
2019-06-27T00:49:38.737Z,17.60
2019-06-27T00:52:06.497Z,17.60
2019-06-27T00:54:35.145Z,17.60
2019-06-27T00:57:13.654Z,17.60
2019-06-27T00:59:33.562Z,17.60
2019-06-27T01:02:00.954Z,17.50
2019-06-27T01:04:29.556Z,17.40
2019-06-27T01:06:58.213Z,17.50
2019-06-27T01:09:26.649Z,17.40
2019-06-27T01:11:55.539Z,17.40
2019-06-27T01:14:23.836Z,17.30
2019-06-27T01:16:52.136Z,17.30
2019-06-27T01:19:20.548Z,17.30
2019-06-27T01:21:49.684Z,17.30
2019-06-27T01:24:18.228Z,17.20
2019-06-27T01:26:46.444Z,17.20
2019-06-27T01:29:15.004Z,17.20
2019-06-27T01:31:43.608Z,17.10
2019-06-27T01:34:11.780Z,17.00
2019-06-27T01:36:39.779Z,17.10
2019-06-27T01:39:14.480Z,17.10
2019-06-27T01:41:42.005Z,17.10
2019-06-27T01:44:30.218Z,17.00
2019-06-27T01:46:59.316Z,16.90
2019-06-27T01:49:27.244Z,17.00
2019-06-27T01:51:56.244Z,16.90
2019-06-27T01:54:24.519Z,16.90
2019-06-27T01:56:52.464Z,17.00
2019-06-27T01:59:21.182Z,17.20
2019-06-27T02:01:49.867Z,16.90
2019-06-27T02:04:18.147Z,16.80
2019-06-27T02:06:46.408Z,17.10
2019-06-27T02:09:14.689Z,17.00
2019-06-27T02:11:42.741Z,17.00
2019-06-27T02:14:10.868Z,17.10
2019-06-27T02:16:39.721Z,16.90
2019-06-27T02:19:08.224Z,17.00
2019-06-27T02:21:36.661Z,17.00
2019-06-27T02:24:05.577Z,16.90
2019-06-27T02:26:34.262Z,17.30
2019-06-27T02:29:02.404Z,16.90
2019-06-27T02:31:31.333Z,17.00
2019-06-27T02:33:58.664Z,16.90
2019-06-27T02:36:26.816Z,17.10
2019-06-27T02:38:55.256Z,16.90
2019-06-27T02:41:23.844Z,17.00
2019-06-27T02:43:52.712Z,17.00
2019-06-27T02:46:21.466Z,17.20
2019-06-27T02:48:49.473Z,17.00
2019-06-27T02:51:18.913Z,16.90
2019-06-27T02:53:46.881Z,16.80
2019-06-27T02:56:15.548Z,16.80
2019-06-27T02:58:43.946Z,16.80
2019-06-27T03:01:12.596Z,16.80
2019-06-27T03:03:40.521Z,16.90
2019-06-27T03:06:09.198Z,16.80
2019-06-27T03:08:37.628Z,16.90
2019-06-27T03:11:06.013Z,16.90
2019-06-27T03:13:34.597Z,16.90
2019-06-27T03:16:02.823Z,17.00
2019-06-27T03:18:31.444Z,16.80
2019-06-27T03:20:59.381Z,16.70
2019-06-27T03:23:28.080Z,16.80
2019-06-27T03:25:55.497Z,17.00
2019-06-27T03:28:23.868Z,16.60
2019-06-27T03:30:52.725Z,16.90
2019-06-27T03:33:21.724Z,16.50
2019-06-27T03:35:50.462Z,16.50
2019-06-27T03:38:18.958Z,16.60
2019-06-27T03:40:47.835Z,16.70
2019-06-27T03:43:15.348Z,16.60
2019-06-27T03:45:44.328Z,16.50
2019-06-27T03:48:12.485Z,16.80
2019-06-27T03:50:41.712Z,16.70
2019-06-27T03:53:09.399Z,16.70
2019-06-27T03:55:38.974Z,16.80
2019-06-27T03:58:07.270Z,16.70
2019-06-27T04:00:35.948Z,16.60
2019-06-27T04:03:20.197Z,16.70
2019-06-27T04:05:50.208Z,16.70
2019-06-27T04:08:18.474Z,16.70
2019-06-27T04:10:47.279Z,16.70
2019-06-27T04:13:15.969Z,17.00
2019-06-27T04:15:44.767Z,16.70
2019-06-27T04:18:13.331Z,16.80
2019-06-27T04:20:42.025Z,16.90
2019-06-27T04:23:10.803Z,16.90
2019-06-27T04:25:39.250Z,17.20
2019-06-27T04:28:07.876Z,16.90
2019-06-27T04:30:36.674Z,16.80
2019-06-27T04:33:05.265Z,16.90
2019-06-27T04:35:33.008Z,17.40
2019-06-27T04:38:01.654Z,17.00
2019-06-27T04:40:30.689Z,17.00
2019-06-27T04:42:58.142Z,17.00
2019-06-27T04:45:26.729Z,17.30
2019-06-27T04:47:55.473Z,17.10
2019-06-27T04:50:24.080Z,17.20
2019-06-27T04:52:52.785Z,17.00
2019-06-27T04:55:21.264Z,17.40
2019-06-27T04:57:49.033Z,17.00
2019-06-27T05:00:25.300Z,17.00
2019-06-27T05:02:53.897Z,16.90
2019-06-27T05:05:22.073Z,17.00
2019-06-27T05:07:50.750Z,17.00
2019-06-27T05:10:24.411Z,17.00
2019-06-27T05:12:51.347Z,17.10
2019-06-27T05:15:19.892Z,17.20
2019-06-27T05:17:47.740Z,17.20
2019-06-27T05:20:16.184Z,17.70
2019-06-27T05:22:44.700Z,17.30
2019-06-27T05:25:13.073Z,17.30
2019-06-27T05:27:41.358Z,17.40
2019-06-27T05:30:11.281Z,17.60
2019-06-27T05:32:39.511Z,17.60
2019-06-27T05:35:08.441Z,17.50
2019-06-27T05:37:36.096Z,17.40
2019-06-27T05:40:04.238Z,17.40
2019-06-27T05:42:32.655Z,17.90
2019-06-27T05:45:01.149Z,17.90
2019-06-27T05:47:30.126Z,17.30
2019-06-27T05:49:57.415Z,17.60
2019-06-27T05:52:24.652Z,17.50
2019-06-27T05:54:53.292Z,17.70
2019-06-27T05:57:21.909Z,17.60
2019-06-27T05:59:50.234Z,17.80
2019-06-27T06:02:18.738Z,17.60
2019-06-27T06:04:47.270Z,17.70
2019-06-27T06:07:15.454Z,17.70
2019-06-27T06:09:43.615Z,17.80
2019-06-27T06:12:12.000Z,17.70
2019-06-27T06:14:40.630Z,17.70
2019-06-27T06:17:09.308Z,17.80
2019-06-27T06:19:39.997Z,17.60
2019-06-27T06:22:08.603Z,17.60
2019-06-27T06:24:36.923Z,17.80
2019-06-27T06:27:05.102Z,18.10
2019-06-27T06:29:33.279Z,18.50
2019-06-27T06:32:02.422Z,18.20
2019-06-27T06:34:29.949Z,18.30
2019-06-27T06:36:58.558Z,18.00
2019-06-27T06:39:27.544Z,18.10
2019-06-27T06:41:55.203Z,17.80
2019-06-27T06:44:24.894Z,17.80
2019-06-27T06:46:52.091Z,17.90
2019-06-27T06:49:21.843Z,17.80
2019-06-27T06:51:49.124Z,17.60
2019-06-27T06:54:17.658Z,17.40
2019-06-27T06:56:47.799Z,17.40
2019-06-27T06:59:15.781Z,17.20
2019-06-27T07:01:45.642Z,17.40
2019-06-27T07:04:12.415Z,17.50
2019-06-27T07:06:40.778Z,17.50
2019-06-27T07:09:08.841Z,17.50
2019-06-27T07:11:37.217Z,17.70
2019-06-27T07:14:06.388Z,17.90
2019-06-27T07:16:35.072Z,18.00
2019-06-27T07:19:03.217Z,18.50
2019-06-27T07:21:31.783Z,18.40
2019-06-27T07:24:00.084Z,18.80
2019-06-27T07:26:28.874Z,19.30
2019-06-27T07:28:57.652Z,19.70
2019-06-27T07:31:24.916Z,19.70
2019-06-27T07:33:53.291Z,19.60
2019-06-27T07:36:21.675Z,20.80
2019-06-27T07:38:51.726Z,22.00
2019-06-27T07:41:19.237Z,23.30
2019-06-27T07:43:46.704Z,25.10
2019-06-27T07:46:25.049Z,25.80
2019-06-27T07:48:45.179Z,26.50
2019-06-27T07:51:13.992Z,27.30
2019-06-27T07:53:42.779Z,27.00
2019-06-27T07:56:10.826Z,28.60
2019-06-27T07:58:39.332Z,28.40
2019-06-27T08:01:08.127Z,29.40
2019-06-27T08:03:36.876Z,30.50
2019-06-27T08:06:05.347Z,30.70
2019-06-27T08:08:33.579Z,31.00
2019-06-27T08:11:02.053Z,32.00
2019-06-27T08:13:30.737Z,32.30
2019-06-27T08:15:58.912Z,33.50
2019-06-27T08:18:28.475Z,33.70
2019-06-27T08:20:57.099Z,31.90
2019-06-27T08:23:40.476Z,31.60
2019-06-27T08:25:55.421Z,33.00
2019-06-27T08:28:23.880Z,32.80
2019-06-27T08:30:52.047Z,33.00
2019-06-27T08:33:20.417Z,32.10
2019-06-27T08:35:49.258Z,32.20
2019-06-27T08:38:18.391Z,30.90
2019-06-27T08:40:46.092Z,29.60
2019-06-27T08:43:14.711Z,26.30
2019-06-27T08:45:46.627Z,25.20
2019-06-27T08:48:14.853Z,24.10
2019-06-27T08:50:43.882Z,23.70
2019-06-27T08:53:12.984Z,23.70
2019-06-27T08:55:40.443Z,23.50
2019-06-27T08:58:09.186Z,23.20
2019-06-27T09:00:37.655Z,22.50
2019-06-27T09:03:06.095Z,22.40
2019-06-27T09:05:34.790Z,22.60
2019-06-27T09:08:02.968Z,22.30
2019-06-27T09:10:31.284Z,22.60
2019-06-27T09:12:59.412Z,22.60
2019-06-27T09:15:27.554Z,23.00
2019-06-27T09:17:55.605Z,22.70
2019-06-27T09:20:31.770Z,21.90
2019-06-27T09:22:59.245Z,21.80
2019-06-27T09:25:26.411Z,21.70
2019-06-27T09:27:53.629Z,21.80
2019-06-27T09:30:20.861Z,22.00
2019-06-27T09:32:47.954Z,22.30
2019-06-27T09:35:16.475Z,22.60
2019-06-27T09:37:44.488Z,22.90
2019-06-27T09:40:12.971Z,23.10
2019-06-27T09:42:41.187Z,23.30
2019-06-27T09:45:09.909Z,23.40
2019-06-27T09:47:40.840Z,23.50
2019-06-27T09:50:10.575Z,23.40
2019-06-27T09:52:37.591Z,23.50
2019-06-27T09:55:04.888Z,23.40
2019-06-27T09:57:31.911Z,23.60
2019-06-27T09:59:59.671Z,24.00
2019-06-27T10:02:41.028Z,23.90
2019-06-27T10:05:01.483Z,23.70
2019-06-27T10:07:28.519Z,23.90
2019-06-27T10:09:55.586Z,23.90
2019-06-27T10:12:23.709Z,23.30
2019-06-27T10:14:52.512Z,22.80
2019-06-27T10:17:20.636Z,23.10
2019-06-27T10:19:48.954Z,23.40
2019-06-27T10:22:17.175Z,23.90
2019-06-27T10:24:45.359Z,24.00
2019-06-27T10:27:15.042Z,24.20
2019-06-27T10:29:42.974Z,24.30
2019-06-27T10:32:11.319Z,23.90
2019-06-27T10:34:39.451Z,24.10
2019-06-27T10:37:07.607Z,23.90
2019-06-27T10:39:38.551Z,24.20
2019-06-27T10:42:05.596Z,24.30
2019-06-27T10:44:33.524Z,24.60
2019-06-27T10:47:01.494Z,24.70
2019-06-27T10:49:29.768Z,24.80
2019-06-27T10:51:57.964Z,23.70
2019-06-27T10:54:30.171Z,23.70
2019-06-27T10:56:58.572Z,23.80
2019-06-27T10:59:27.081Z,23.60
2019-06-27T11:01:55.762Z,24.00
2019-06-27T11:04:23.041Z,24.30
2019-06-27T11:06:53.931Z,24.70
2019-06-27T11:09:21.220Z,25.00
2019-06-27T11:11:49.687Z,25.10
2019-06-27T11:14:19.284Z,25.10
2019-06-27T11:16:47.488Z,25.10
2019-06-27T11:19:19.338Z,24.60
2019-06-27T11:21:47.303Z,24.20
2019-06-27T11:24:15.743Z,24.60
2019-06-27T11:26:43.801Z,24.70
2019-06-27T11:29:11.822Z,25.00
2019-06-27T11:31:42.730Z,25.20
2019-06-27T11:34:11.034Z,25.70
2019-06-27T11:36:39.108Z,25.80
2019-06-27T11:39:07.234Z,25.50
2019-06-27T11:41:35.485Z,25.00
2019-06-27T11:44:05.044Z,25.40
2019-06-27T11:46:33.171Z,25.80
2019-06-27T11:49:01.107Z,25.90
2019-06-27T11:51:29.078Z,25.50
2019-06-27T11:53:57.017Z,25.40
2019-06-27T11:56:30.982Z,24.90
2019-06-27T11:58:58.063Z,25.10
2019-06-27T12:01:25.528Z,25.20
2019-06-27T12:03:52.444Z,25.80
2019-06-27T12:06:19.743Z,25.80
2019-06-27T12:08:46.705Z,25.90
2019-06-27T12:11:20.690Z,26.10
2019-06-27T12:13:47.708Z,26.10
2019-06-27T12:16:15.921Z,26.50
2019-06-27T12:18:44.335Z,26.50
2019-06-27T12:21:11.567Z,26.40
2019-06-27T12:23:41.689Z,26.80
2019-06-27T12:26:09.891Z,26.80
2019-06-27T12:28:37.884Z,26.80
2019-06-27T12:31:19.912Z,26.80
2019-06-27T12:33:35.961Z,26.90
2019-06-27T12:36:05.520Z,26.90
2019-06-27T12:38:34.631Z,26.70
2019-06-27T12:41:02.764Z,26.70
2019-06-27T12:43:31.780Z,26.90
2019-06-27T12:45:58.709Z,26.50
2019-06-27T12:48:31.455Z,26.70
2019-06-27T12:51:00.215Z,26.70
2019-06-27T12:53:28.626Z,26.80
2019-06-27T12:55:57.362Z,26.50
2019-06-27T12:58:26.839Z,26.50
2019-06-27T13:00:57.745Z,26.60
2019-06-27T13:03:26.678Z,26.70
2019-06-27T13:05:54.823Z,26.90
2019-06-27T13:08:23.370Z,27.10
2019-06-27T13:10:51.516Z,27.10
2019-06-27T13:13:23.889Z,26.70
2019-06-27T13:15:52.360Z,26.20
2019-06-27T13:18:20.634Z,26.30
2019-06-27T13:20:57.775Z,26.10
2019-06-27T13:23:19.246Z,26.30
2019-06-27T13:25:50.653Z,26.80
2019-06-27T13:28:18.625Z,26.70
2019-06-27T13:30:45.678Z,26.80
2019-06-27T13:33:14.022Z,27.10
2019-06-27T13:35:43.849Z,26.80
2019-06-27T13:38:17.132Z,26.80
2019-06-27T13:40:44.583Z,26.60
2019-06-27T13:43:13.089Z,26.80
2019-06-27T13:45:40.733Z,27.10
2019-06-27T13:48:17.987Z,27.30
2019-06-27T13:50:45.780Z,27.10
2019-06-27T13:53:13.222Z,27.30
2019-06-27T13:55:40.793Z,27.00
2019-06-27T13:58:08.348Z,27.10
2019-06-27T14:00:45.916Z,26.70
2019-06-27T14:03:13.520Z,26.60
2019-06-27T14:05:41.760Z,26.60
2019-06-27T14:08:10.744Z,26.80
2019-06-27T14:10:46.428Z,27.10
2019-06-27T14:13:14.407Z,27.00
2019-06-27T14:15:41.323Z,26.80
2019-06-27T14:18:08.480Z,27.10
2019-06-27T14:20:35.908Z,27.40
2019-06-27T14:23:03.312Z,27.30
2019-06-27T14:25:36.401Z,27.40
2019-06-27T14:28:05.371Z,27.40
2019-06-27T14:30:33.871Z,27.50
2019-06-27T14:33:01.244Z,27.30
2019-06-27T14:35:29.847Z,27.40
2019-06-27T14:38:02.881Z,27.60
2019-06-27T14:40:31.493Z,27.70
2019-06-27T14:42:58.544Z,27.60
2019-06-27T14:45:27.195Z,27.60
2019-06-27T14:47:55.565Z,27.50
2019-06-27T14:50:25.459Z,27.20
2019-06-27T14:52:53.689Z,27.40
2019-06-27T14:55:22.316Z,27.40
2019-06-27T14:57:50.969Z,27.30
2019-06-27T15:00:21.391Z,27.10
2019-06-27T15:02:52.623Z,27.10
2019-06-27T15:05:32.429Z,27.40
2019-06-27T15:07:53.084Z,27.30
2019-06-27T15:10:21.507Z,27.10
2019-06-27T15:12:57.501Z,26.60
2019-06-27T15:15:23.619Z,26.60
2019-06-27T15:17:52.006Z,26.70
2019-06-27T15:20:20.634Z,26.70
2019-06-27T15:22:53.381Z,26.50
2019-06-27T15:25:21.171Z,26.60
2019-06-27T15:27:48.458Z,26.80
2019-06-27T15:30:16.008Z,26.90
2019-06-27T15:32:43.528Z,27.10
2019-06-27T15:35:11.284Z,27.30
2019-06-27T15:37:45.932Z,27.60
2019-06-27T15:40:13.715Z,27.60
2019-06-27T15:42:40.847Z,27.70
2019-06-27T15:45:08.580Z,27.50
2019-06-27T15:47:38.002Z,27.30
2019-06-27T15:50:08.693Z,27.00
2019-06-27T15:52:36.936Z,27.10
2019-06-27T15:55:05.252Z,26.90
2019-06-27T15:57:34.085Z,27.00
2019-06-27T16:00:02.374Z,26.90
2019-06-27T16:02:31.473Z,26.90
2019-06-27T16:05:02.718Z,27.00
2019-06-27T16:07:30.522Z,27.10
2019-06-27T16:09:58.791Z,26.80
2019-06-27T16:12:27.529Z,27.40
2019-06-27T16:15:04.844Z,27.30
2019-06-27T16:17:32.787Z,27.30
2019-06-27T16:19:59.899Z,26.90
2019-06-27T16:22:27.790Z,27.10
2019-06-27T16:24:54.892Z,26.80
2019-06-27T16:27:27.297Z,27.00
2019-06-27T16:29:54.728Z,27.10
2019-06-27T16:32:22.129Z,27.10
2019-06-27T16:34:49.099Z,27.00
2019-06-27T16:37:16.527Z,26.90
2019-06-27T16:39:44.296Z,26.90
2019-06-27T16:42:16.259Z,26.80
2019-06-27T16:44:43.562Z,26.80
2019-06-27T16:47:10.772Z,27.00
2019-06-27T16:49:38.102Z,27.20
2019-06-27T16:52:05.483Z,26.90
2019-06-27T16:54:32.943Z,26.80
2019-06-27T16:57:01.067Z,26.90
2019-06-27T16:59:29.159Z,26.70
2019-06-27T17:01:57.566Z,26.70
2019-06-27T17:04:25.938Z,26.60
2019-06-27T17:06:53.994Z,26.60
2019-06-27T17:09:22.191Z,26.60
2019-06-27T17:11:50.436Z,26.10
2019-06-27T17:14:18.568Z,26.00
2019-06-27T17:16:46.692Z,26.10
2019-06-27T17:19:15.045Z,26.10
2019-06-27T17:21:49.818Z,26.10
2019-06-27T17:24:16.875Z,26.20
2019-06-27T17:26:44.075Z,26.20
2019-06-27T17:29:11.228Z,26.10
2019-06-27T17:31:44.476Z,26.10
2019-06-27T17:34:14.120Z,25.80
2019-06-27T17:36:53.569Z,25.60
2019-06-27T17:39:11.564Z,25.40
2019-06-27T17:41:44.517Z,25.20
2019-06-27T17:44:12.564Z,25.00
2019-06-27T17:46:40.703Z,24.80
2019-06-27T17:49:07.727Z,24.70
2019-06-27T17:51:35.748Z,24.80
2019-06-27T17:54:06.879Z,24.80
2019-06-27T17:56:34.902Z,24.70
2019-06-27T17:59:02.937Z,24.70
2019-06-27T18:01:31.081Z,24.70
2019-06-27T18:03:59.147Z,24.60
2019-06-27T18:06:28.740Z,24.40
2019-06-27T18:08:57.209Z,24.40
2019-06-27T18:11:25.262Z,24.60
2019-06-27T18:13:53.200Z,24.40
2019-06-27T18:16:21.218Z,24.40
2019-06-27T18:18:50.954Z,24.10
2019-06-27T18:21:19.190Z,24.10
2019-06-27T18:23:47.236Z,23.70
2019-06-27T18:26:15.560Z,23.60
2019-06-27T18:28:43.611Z,23.50
2019-06-27T18:31:11.788Z,23.50
2019-06-27T18:33:44.690Z,23.40
2019-06-27T18:36:11.820Z,23.30
2019-06-27T18:38:39.965Z,23.30
2019-06-27T18:41:08.094Z,23.30
2019-06-27T18:43:42.096Z,23.60
2019-06-27T18:46:10.282Z,23.20
2019-06-27T18:48:38.519Z,23.10
2019-06-27T18:51:06.783Z,23.00
2019-06-27T18:53:40.170Z,23.00
2019-06-27T18:56:07.344Z,22.80
2019-06-27T18:58:36.566Z,22.80
2019-06-27T19:01:03.775Z,22.40
2019-06-27T19:03:31.800Z,22.40
2019-06-27T19:06:02.842Z,22.30
2019-06-27T19:08:30.247Z,22.10
2019-06-27T19:10:57.754Z,22.10
2019-06-27T19:13:26.447Z,22.40
2019-06-27T19:15:54.718Z,22.10
2019-06-27T19:18:41.483Z,21.90
2019-06-27T19:21:12.873Z,21.90
2019-06-27T19:24:12.803Z,21.70
2019-06-27T19:26:40.342Z,21.90
2019-06-27T19:29:07.648Z,21.70
2019-06-27T19:31:35.139Z,21.50
2019-06-27T19:34:03.540Z,21.40
2019-06-27T19:36:31.011Z,21.20
2019-06-27T19:38:59.394Z,21.20
2019-06-27T19:41:26.631Z,21.00
2019-06-27T19:43:54.998Z,21.10
2019-06-27T19:46:22.776Z,21.10
2019-06-27T19:48:49.887Z,21.00
2019-06-27T19:51:17.321Z,21.00
2019-06-27T19:53:44.680Z,21.10
2019-06-27T19:56:12.827Z,20.70
2019-06-27T19:58:40.001Z,20.80
2019-06-27T20:01:08.343Z,20.70
2019-06-27T20:03:36.271Z,20.60
2019-06-27T20:06:04.580Z,20.50
2019-06-27T20:08:33.032Z,20.30
2019-06-27T20:11:01.816Z,20.30
2019-06-27T20:13:30.693Z,20.00
2019-06-27T20:16:06.301Z,20.30
2019-06-27T20:18:35.787Z,20.50
2019-06-27T20:21:04.174Z,20.00
2019-06-27T20:23:32.733Z,20.10
2019-06-27T20:26:03.654Z,19.90
2019-06-27T20:28:30.904Z,20.00
2019-06-27T20:30:58.870Z,19.90
2019-06-27T20:33:26.903Z,20.10
2019-06-27T20:35:55.422Z,20.00
2019-06-27T20:38:34.349Z,19.70
2019-06-27T20:40:53.910Z,19.80
2019-06-27T20:43:22.186Z,19.60
2019-06-27T20:45:50.223Z,19.50
2019-06-27T20:48:18.199Z,19.40
2019-06-27T20:50:46.392Z,19.60
2019-06-27T20:53:14.563Z,19.20
2019-06-27T20:55:42.849Z,19.50
2019-06-27T20:58:11.375Z,19.50
2019-06-27T21:00:39.627Z,19.00
2019-06-27T21:03:08.261Z,19.00
2019-06-27T21:05:36.626Z,18.90
2019-06-27T21:08:04.887Z,18.90
2019-06-27T21:10:33.061Z,19.00
2019-06-27T21:13:01.444Z,18.90
2019-06-27T21:15:32.576Z,18.70
2019-06-27T21:17:59.863Z,18.80
2019-06-27T21:20:27.601Z,19.10
2019-06-27T21:22:57.156Z,18.80
2019-06-27T21:25:24.506Z,18.80
2019-06-27T21:27:51.947Z,18.80
2019-06-27T21:30:20.279Z,18.70
2019-06-27T21:32:48.697Z,18.60
2019-06-27T21:35:17.227Z,18.60
2019-06-27T21:37:45.647Z,18.50
2019-06-27T21:40:15.981Z,18.40
2019-06-27T21:42:43.652Z,18.60
2019-06-27T21:45:11.403Z,18.30
2019-06-27T21:47:39.525Z,18.40
2019-06-27T21:50:07.747Z,18.20
2019-06-27T21:52:36.244Z,18.10
2019-06-27T21:55:06.692Z,18.10
2019-06-27T21:57:35.585Z,18.10
2019-06-27T22:00:08.363Z,18.00
2019-06-27T22:02:36.397Z,18.00
2019-06-27T22:05:04.731Z,17.90
2019-06-27T22:07:33.282Z,17.90
2019-06-27T22:10:02.928Z,17.80
2019-06-27T22:12:34.369Z,17.80
2019-06-27T22:15:03.126Z,17.70
2019-06-27T22:17:31.139Z,17.80
2019-06-27T22:20:14.082Z,17.60
2019-06-27T22:22:29.118Z,17.60
2019-06-27T22:24:57.639Z,17.60
2019-06-27T22:27:25.819Z,17.50
2019-06-27T22:29:53.921Z,17.30
2019-06-27T22:32:21.847Z,17.30
2019-06-27T22:34:49.995Z,17.30
2019-06-27T22:37:24.075Z,17.30
2019-06-27T22:40:11.729Z,17.20
2019-06-27T22:42:58.591Z,17.10
2019-06-27T22:45:44.929Z,17.00
2019-06-27T22:48:13.479Z,17.00
2019-06-27T22:51:10.311Z,17.00
2019-06-27T22:53:45.232Z,16.90
2019-06-27T22:56:13.338Z,16.80
2019-06-27T22:58:41.371Z,16.80
2019-06-27T23:01:09.590Z,16.60
2019-06-27T23:03:37.626Z,16.60
2019-06-27T23:06:05.804Z,16.70
2019-06-27T23:08:34.299Z,16.60
2019-06-27T23:11:02.415Z,16.50
2019-06-27T23:13:30.571Z,16.50
2019-06-27T23:15:58.656Z,16.70
2019-06-27T23:18:27.584Z,16.50
2019-06-27T23:20:55.971Z,16.40
2019-06-27T23:23:24.168Z,16.30
2019-06-27T23:25:52.345Z,16.20
2019-06-27T23:28:20.631Z,16.20
2019-06-27T23:30:48.646Z,16.40
2019-06-27T23:33:16.632Z,16.30
2019-06-27T23:35:45.102Z,16.20
2019-06-27T23:38:13.509Z,16.10
2019-06-27T23:40:41.726Z,16.00
2019-06-27T23:43:10.542Z,16.00
2019-06-27T23:45:43.679Z,15.90
2019-06-27T23:48:10.761Z,15.90
2019-06-27T23:50:38.118Z,16.00
2019-06-27T23:53:05.150Z,16.00
2019-06-27T23:55:33.399Z,16.10
2019-06-27T23:58:01.732Z,15.90
